Time;durP1;ratioP1;P1;durP2;ratioP2;P2;SDS_P1;SDS_P2;PMS_P1;PMS_P2;Temp;Humidity;BMP_temperature;BMP_pressure;BME280_temperature;BME280_humidity;BME280_pressure;Samples;Min_cycle;Max_cycle;Signal;HPM_P1;HPM_P2
2022/11/28 00:01:19;;;;;;;;;;;5.20;99.90;;;;;;1884638;76;20185;-76
2022/11/28 00:03:46;;;;;;;;;;;5.10;99.90;;;;;;1884637;75;20118;-77
2022/11/28 00:06:13;;;;;;;;;;;5.30;99.90;;;;;;1884684;76;20353;-77
2022/11/28 00:08:40;;;;;;;;;;;5.20;99.90;;;;;;1884532;76;20156;-77
2022/11/28 00:11:07;;;;;;;;;;;5.20;99.90;;;;;;1884890;76;20343;-77
2022/11/28 00:13:34;;;;;;;;;;;5.10;99.90;;;;;;1884622;76;20125;-78
2022/11/28 00:16:09;;;;;;;;;;;5.10;99.90;;;;;;1884989;76;20110;-77
2022/11/28 00:18:35;;;;;;;;;;;5.20;99.90;;;;;;1884877;76;20106;-76
2022/11/28 00:21:03;;;;;;;;;;;5.30;99.90;;;;;;1884767;76;20114;-76
2022/11/28 00:23:30;;;;;;;;;;;5.40;99.90;;;;;;1884893;76;20114;-76
2022/11/28 00:25:58;;;;;;;;;;;5.40;99.90;;;;;;1884713;76;20114;-78
2022/11/28 00:28:24;;;;;;;;;;;5.30;99.90;;;;;;1884789;76;20196;-77
2022/11/28 00:30:51;;;;;;;;;;;5.30;99.90;;;;;;1884710;76;20137;-76
2022/11/28 00:33:18;;;;;;;;;;;5.30;99.90;;;;;;1884650;76;20114;-76
2022/11/28 00:35:44;;;;;;;;;;;5.30;99.90;;;;;;1884755;76;20199;-76
2022/11/28 00:38:11;;;;;;;;;;;5.30;99.90;;;;;;1884670;76;20176;-76
2022/11/28 00:40:38;;;;;;;;;;;5.20;99.90;;;;;;1884757;76;20125;-76
2022/11/28 00:43:05;;;;;;;;;;;5.10;99.90;;;;;;1884788;76;20211;-76
2022/11/28 00:45:31;;;;;;;;;;;5.00;99.90;;;;;;1884650;76;20125;-76
2022/11/28 00:47:58;;;;;;;;;;;5.10;99.90;;;;;;1884686;76;20172;-76
2022/11/28 00:50:25;;;;;;;;;;;5.30;99.90;;;;;;1884647;76;20191;-76
2022/11/28 00:52:51;;;;;;;;;;;5.30;99.90;;;;;;1884625;76;20185;-76
2022/11/28 00:55:18;;;;;;;;;;;5.20;99.90;;;;;;1884691;76;20321;-76
2022/11/28 00:57:45;;;;;;;;;;;5.20;99.90;;;;;;1884680;76;20157;-77
2022/11/28 01:00:12;;;;;;;;;;;5.10;99.90;;;;;;1884710;76;20098;-77
2022/11/28 01:02:39;;;;;;;;;;;5.00;99.90;;;;;;1886700;76;20310;-76
2022/11/28 01:05:06;;;;;;;;;;;5.10;99.90;;;;;;1884617;76;20137;-77
2022/11/28 01:07:33;;;;;;;;;;;5.10;99.90;;;;;;1884675;76;20360;-76
2022/11/28 01:10:01;;;;;;;;;;;5.10;99.90;;;;;;1884623;76;20345;-76
2022/11/28 01:12:27;;;;;;;;;;;5.00;99.90;;;;;;1884616;76;20104;-77
2022/11/28 01:14:56;;;;;;;;;;;5.00;99.90;;;;;;1884701;76;20129;-76
2022/11/28 01:17:22;;;;;;;;;;;5.00;99.90;;;;;;1884592;76;20173;-76
2022/11/28 01:19:49;;;;;;;;;;;5.00;99.90;;;;;;1884604;76;20106;-76
2022/11/28 01:22:16;;;;;;;;;;;5.10;99.90;;;;;;1884767;76;20112;-77
2022/11/28 01:24:42;;;;;;;;;;;5.10;99.90;;;;;;1884793;76;20144;-77
2022/11/28 01:27:09;;;;;;;;;;;5.10;99.90;;;;;;1884682;76;20098;-76
2022/11/28 01:29:36;;;;;;;;;;;5.10;99.90;;;;;;1884728;76;20157;-76
2022/11/28 01:32:03;;;;;;;;;;;5.10;99.90;;;;;;1884768;76;20114;-76
2022/11/28 01:34:29;;;;;;;;;;;5.00;99.90;;;;;;1884727;76;20115;-75
2022/11/28 01:36:56;;;;;;;;;;;4.90;99.90;;;;;;1884702;76;20183;-76
2022/11/28 01:39:23;;;;;;;;;;;5.10;99.90;;;;;;1884696;76;20113;-76
2022/11/28 01:41:49;;;;;;;;;;;5.20;99.90;;;;;;1884720;76;20156;-76
2022/11/28 01:44:18;;;;;;;;;;;5.20;99.90;;;;;;1884773;76;20114;-76
2022/11/28 01:46:44;;;;;;;;;;;5.20;99.90;;;;;;1884749;76;20177;-78
2022/11/28 01:49:13;;;;;;;;;;;5.20;99.90;;;;;;1884616;76;20118;-77
2022/11/28 01:51:40;;;;;;;;;;;5.20;99.90;;;;;;1884623;76;20114;-78
2022/11/28 01:54:07;;;;;;;;;;;5.20;99.90;;;;;;1884648;76;20109;-76
2022/11/28 01:56:35;;;;;;;;;;;5.10;99.90;;;;;;1884587;76;20395;-76
2022/11/28 01:59:03;;;;;;;;;;;5.10;99.90;;;;;;1884660;75;20208;-75
2022/11/28 02:01:29;;;;;;;;;;;5.10;99.90;;;;;;1884721;76;20110;-78
2022/11/28 02:03:56;;;;;;;;;;;5.10;99.90;;;;;;1884674;76;20364;-76
2022/11/28 02:06:23;;;;;;;;;;;5.00;99.90;;;;;;1884614;76;20144;-76
2022/11/28 02:08:52;;;;;;;;;;;5.00;99.90;;;;;;1884714;76;20341;-75
2022/11/28 02:11:32;;;;;;;;;;;5.10;99.90;;;;;;1884691;76;20117;-75
2022/11/28 02:14:12;;;;;;;;;;;5.00;99.90;;;;;;1884639;76;20156;-76
2022/11/28 02:16:43;;;;;;;;;;;4.90;99.90;;;;;;1884550;76;20113;-76
2022/11/28 02:19:17;;;;;;;;;;;4.90;99.90;;;;;;1884633;76;20122;-78
2022/11/28 02:21:49;;;;;;;;;;;4.80;99.90;;;;;;1884586;76;20144;-77
2022/11/28 02:24:17;;;;;;;;;;;4.80;99.90;;;;;;1884613;76;20418;-76
2022/11/28 02:26:54;;;;;;;;;;;4.70;99.90;;;;;;1884723;76;20144;-76
2022/11/28 02:29:27;;;;;;;;;;;4.70;99.90;;;;;;1884685;76;20207;-77
2022/11/28 02:31:58;;;;;;;;;;;4.70;99.90;;;;;;1884662;76;20114;-77
2022/11/28 02:34:30;;;;;;;;;;;4.70;99.90;;;;;;1884718;76;20353;-76
2022/11/28 02:37:04;;;;;;;;;;;4.70;99.90;;;;;;1884781;76;20325;-76
2022/11/28 02:39:33;;;;;;;;;;;4.70;99.90;;;;;;1884721;75;20153;-78
2022/11/28 02:42:13;;;;;;;;;;;4.70;99.90;;;;;;1884764;75;20126;-77
2022/11/28 02:44:44;;;;;;;;;;;4.60;99.90;;;;;;1884495;76;20156;-78
2022/11/28 02:47:12;;;;;;;;;;;4.60;99.90;;;;;;1884609;76;20122;-77
2022/11/28 02:49:47;;;;;;;;;;;4.50;99.90;;;;;;1884439;76;20191;-77
2022/11/28 02:52:27;;;;;;;;;;;4.50;99.90;;;;;;1884530;76;20114;-76
2022/11/28 02:54:54;;;;;;;;;;;4.60;99.90;;;;;;1884672;76;20117;-76
2022/11/28 02:57:21;;;;;;;;;;;4.60;99.90;;;;;;1884718;76;20317;-76
2022/11/28 02:59:48;;;;;;;;;;;4.50;99.90;;;;;;1884756;76;20149;-76
2022/11/28 03:02:27;;;;;;;;;;;4.50;99.90;;;;;;1884591;76;20129;-76
2022/11/28 03:05:13;;;;;;;;;;;4.60;99.90;;;;;;1884606;76;20140;-77
2022/11/28 03:07:59;;;;;;;;;;;4.60;99.90;;;;;;1884594;76;20326;-77
2022/11/28 03:10:33;;;;;;;;;;;4.70;99.90;;;;;;1884603;76;20223;-76
2022/11/28 03:13:18;;;;;;;;;;;4.60;99.90;;;;;;1884645;76;20110;-77
2022/11/28 03:15:49;;;;;;;;;;;4.50;99.90;;;;;;1884620;76;20384;-77
2022/11/28 03:18:18;;;;;;;;;;;4.50;99.90;;;;;;1884440;76;20156;-77
2022/11/28 03:20:49;;;;;;;;;;;4.60;99.90;;;;;;1884602;75;20177;-78
2022/11/28 03:23:16;;;;;;;;;;;4.70;99.90;;;;;;1884695;76;20258;-78
2022/11/28 03:25:51;;;;;;;;;;;4.60;99.90;;;;;;1884558;76;20122;-76
2022/11/28 03:28:19;;;;;;;;;;;4.60;99.90;;;;;;1884492;75;20126;-76
2022/11/28 03:30:47;;;;;;;;;;;4.80;99.90;;;;;;1884701;76;20219;-76
2022/11/28 03:33:15;;;;;;;;;;;4.90;99.90;;;;;;1884580;76;20322;-76
2022/11/28 03:35:43;;;;;;;;;;;4.70;99.90;;;;;;1884703;76;20117;-76
2022/11/28 03:38:11;;;;;;;;;;;4.60;99.90;;;;;;1884580;76;20103;-77
2022/11/28 03:40:42;;;;;;;;;;;4.60;99.90;;;;;;1884612;76;20180;-76
2022/11/28 03:43:10;;;;;;;;;;;4.80;99.90;;;;;;1884753;76;20118;-77
2022/11/28 03:45:41;;;;;;;;;;;4.70;99.90;;;;;;1884623;76;20187;-76
2022/11/28 03:48:10;;;;;;;;;;;4.70;99.90;;;;;;1884551;75;20121;-78
2022/11/28 03:50:41;;;;;;;;;;;4.60;99.90;;;;;;1884767;76;20114;-77
2022/11/28 03:53:21;;;;;;;;;;;4.70;99.90;;;;;;1884745;76;20164;-78
2022/11/28 03:55:49;;;;;;;;;;;4.70;99.90;;;;;;1884770;76;20176;-78
2022/11/28 03:58:23;;;;;;;;;;;4.70;99.90;;;;;;1884881;76;20157;-78
2022/11/28 04:00:51;;;;;;;;;;;4.80;99.90;;;;;;1884845;76;20103;-77
2022/11/28 04:03:25;;;;;;;;;;;4.80;99.90;;;;;;1884960;76;20107;-78
2022/11/28 04:05:53;;;;;;;;;;;4.90;99.90;;;;;;1884564;75;20129;-78
2022/11/28 04:08:22;;;;;;;;;;;4.90;99.90;;;;;;1884210;75;20114;-78
2022/11/28 04:10:59;;;;;;;;;;;4.90;99.90;;;;;;1884709;76;20328;-77
2022/11/28 04:13:29;;;;;;;;;;;4.80;99.90;;;;;;1884729;75;20203;-78
2022/11/28 04:15:57;;;;;;;;;;;4.60;99.90;;;;;;1884721;76;20196;-78
2022/11/28 04:18:28;;;;;;;;;;;4.60;99.90;;;;;;1884650;76;20294;-77
2022/11/28 04:21:06;;;;;;;;;;;4.70;99.90;;;;;;1884733;76;20156;-78
2022/11/28 04:23:33;;;;;;;;;;;4.60;99.90;;;;;;1884729;75;20160;-78
2022/11/28 04:26:04;;;;;;;;;;;4.70;99.90;;;;;;1884690;76;20102;-78
2022/11/28 04:28:31;;;;;;;;;;;4.60;99.90;;;;;;1884672;75;20157;-78
2022/11/28 04:30:58;;;;;;;;;;;4.70;99.90;;;;;;1884740;76;20114;-77
2022/11/28 04:33:25;;;;;;;;;;;4.60;99.90;;;;;;1884728;76;20148;-78
2022/11/28 04:35:52;;;;;;;;;;;4.70;99.90;;;;;;1884725;76;20140;-77
2022/11/28 04:38:18;;;;;;;;;;;4.70;99.90;;;;;;1884722;76;20110;-78
2022/11/28 04:40:56;;;;;;;;;;;4.60;99.90;;;;;;1884714;76;20373;-77
2022/11/28 04:43:24;;;;;;;;;;;4.70;99.90;;;;;;1884717;76;20370;-78
2022/11/28 04:45:52;;;;;;;;;;;4.70;99.90;;;;;;1884783;76;20326;-77
2022/11/28 04:48:19;;;;;;;;;;;4.70;99.90;;;;;;1884780;76;20154;-78
2022/11/28 04:50:53;;;;;;;;;;;4.60;99.90;;;;;;1884800;76;20170;-78
2022/11/28 04:53:33;;;;;;;;;;;4.50;99.90;;;;;;1884756;76;20199;-77
2022/11/28 04:56:02;;;;;;;;;;;4.50;99.90;;;;;;1884676;76;20118;-78
2022/11/28 04:58:35;;;;;;;;;;;4.60;99.90;;;;;;1884742;75;20164;-78
2022/11/28 05:01:03;;;;;;;;;;;4.60;99.90;;;;;;1884758;76;20164;-77
2022/11/28 05:03:30;;;;;;;;;;;4.40;99.90;;;;;;1884732;76;20114;-78
2022/11/28 05:05:57;;;;;;;;;;;4.40;99.90;;;;;;1886562;75;20118;-78
2022/11/28 05:08:24;;;;;;;;;;;4.50;99.90;;;;;;1884811;76;20111;-77
2022/11/28 05:10:50;;;;;;;;;;;4.60;99.90;;;;;;1884827;76;20149;-78
2022/11/28 05:13:17;;;;;;;;;;;4.60;99.90;;;;;;1884795;76;20337;-78
2022/11/28 05:15:44;;;;;;;;;;;4.50;99.90;;;;;;1884864;76;20199;-78
2022/11/28 05:18:11;;;;;;;;;;;4.40;99.90;;;;;;1884632;76;20355;-78
2022/11/28 05:20:37;;;;;;;;;;;4.40;99.90;;;;;;1886868;76;20121;-78
2022/11/28 05:23:05;;;;;;;;;;;4.40;99.90;;;;;;1884634;76;20118;-78
2022/11/28 05:25:31;;;;;;;;;;;4.40;99.90;;;;;;1884756;76;20195;-76
2022/11/28 05:27:58;;;;;;;;;;;4.40;99.90;;;;;;1884694;76;20113;-78
2022/11/28 05:30:26;;;;;;;;;;;4.30;99.90;;;;;;1884599;76;20169;-77
2022/11/28 05:32:53;;;;;;;;;;;4.40;99.90;;;;;;1884746;76;20117;-77
2022/11/28 05:35:19;;;;;;;;;;;4.40;99.90;;;;;;1884615;76;20118;-77
2022/11/28 05:37:46;;;;;;;;;;;4.40;99.90;;;;;;1884716;76;20177;-77
2022/11/28 05:40:13;;;;;;;;;;;4.40;99.90;;;;;;1884841;76;20110;-78
2022/11/28 05:42:40;;;;;;;;;;;4.40;99.90;;;;;;1884696;76;20114;-77
2022/11/28 05:45:07;;;;;;;;;;;4.50;99.90;;;;;;1884659;76;20165;-78
2022/11/28 05:47:33;;;;;;;;;;;4.40;99.90;;;;;;1884758;76;20111;-77
2022/11/28 05:50:00;;;;;;;;;;;4.40;99.90;;;;;;1886769;76;20164;-78
2022/11/28 05:52:28;;;;;;;;;;;4.40;99.90;;;;;;1884723;76;20103;-77
2022/11/28 05:54:55;;;;;;;;;;;4.50;99.90;;;;;;1884771;76;20152;-77
2022/11/28 05:57:22;;;;;;;;;;;4.40;99.90;;;;;;1884699;76;20164;-76
2022/11/28 05:59:49;;;;;;;;;;;4.60;99.90;;;;;;1884698;76;20170;-76
2022/11/28 06:02:16;;;;;;;;;;;4.60;99.90;;;;;;1884703;76;20230;-78
2022/11/28 06:04:43;;;;;;;;;;;4.50;99.90;;;;;;1884740;76;20337;-80
2022/11/28 06:07:10;;;;;;;;;;;4.50;99.90;;;;;;1884633;76;20117;-79
2022/11/28 06:09:36;;;;;;;;;;;4.50;99.90;;;;;;1884643;76;20161;-79
2022/11/28 06:12:03;;;;;;;;;;;4.40;99.90;;;;;;1884681;76;20129;-79
2022/11/28 06:14:31;;;;;;;;;;;4.50;99.90;;;;;;1884721;76;20180;-84
2022/11/28 06:16:58;;;;;;;;;;;4.40;99.90;;;;;;1884665;76;20102;-78
2022/11/28 06:19:26;;;;;;;;;;;4.40;99.90;;;;;;1884653;76;20327;-78
2022/11/28 06:21:55;;;;;;;;;;;4.40;99.90;;;;;;1884672;76;20130;-84
2022/11/28 06:24:21;;;;;;;;;;;4.40;99.90;;;;;;1884631;76;20102;-78
2022/11/28 06:26:48;;;;;;;;;;;4.40;99.90;;;;;;1884796;76;20138;-87
2022/11/28 06:29:15;;;;;;;;;;;4.60;99.90;;;;;;1885184;76;20314;-86
2022/11/28 06:31:41;;;;;;;;;;;4.60;99.90;;;;;;1885177;76;20122;-75
2022/11/28 06:34:10;;;;;;;;;;;4.60;99.90;;;;;;1884948;76;20341;-77
2022/11/28 06:36:37;;;;;;;;;;;4.50;99.90;;;;;;1885018;76;20157;-76
2022/11/28 06:39:04;;;;;;;;;;;4.50;99.90;;;;;;1885084;76;20344;-78
2022/11/28 06:41:30;;;;;;;;;;;4.60;99.90;;;;;;1885368;76;20125;-83
2022/11/28 06:43:57;;;;;;;;;;;4.60;99.90;;;;;;1885564;76;20176;-79
2022/11/28 06:46:24;;;;;;;;;;;4.50;99.90;;;;;;1885038;76;20122;-80
2022/11/28 06:48:51;;;;;;;;;;;4.60;99.90;;;;;;1885410;76;20156;-80
2022/11/28 06:51:18;;;;;;;;;;;4.50;99.90;;;;;;1885702;76;20122;-77
2022/11/28 06:53:45;;;;;;;;;;;4.50;99.90;;;;;;1885633;76;20141;-83
2022/11/28 06:56:15;;;;;;;;;;;4.60;99.90;;;;;;1885867;76;20110;-83
2022/11/28 06:58:42;;;;;;;;;;;4.60;99.90;;;;;;1885083;76;20109;-75
2022/11/28 07:01:10;;;;;;;;;;;4.60;99.90;;;;;;1885042;76;20336;-79
2022/11/28 07:03:38;;;;;;;;;;;4.50;99.90;;;;;;1884967;76;20325;-80
2022/11/28 07:06:05;;;;;;;;;;;4.50;99.90;;;;;;1885077;76;20169;-81
2022/11/28 07:08:31;;;;;;;;;;;4.60;99.90;;;;;;1884744;76;20114;-81
2022/11/28 07:10:58;;;;;;;;;;;4.60;99.90;;;;;;1884301;76;20340;-80
2022/11/28 07:13:25;;;;;;;;;;;4.50;99.90;;;;;;1886717;76;20114;-81
2022/11/28 07:15:52;;;;;;;;;;;4.50;99.90;;;;;;1884921;76;20333;-79
2022/11/28 07:18:18;;;;;;;;;;;4.50;99.90;;;;;;1884808;76;20118;-79
2022/11/28 07:20:45;;;;;;;;;;;4.50;99.90;;;;;;1884850;76;20364;-77
2022/11/28 07:23:12;;;;;;;;;;;4.60;99.90;;;;;;1884908;76;20144;-79
2022/11/28 07:25:38;;;;;;;;;;;4.60;99.90;;;;;;1886748;76;20322;-80
2022/11/28 07:28:05;;;;;;;;;;;4.50;99.90;;;;;;1884847;76;20229;-79
2022/11/28 07:30:32;;;;;;;;;;;4.60;99.90;;;;;;1884839;76;20214;-79
2022/11/28 07:32:58;;;;;;;;;;;4.60;99.90;;;;;;1884914;76;20145;-79
2022/11/28 07:35:25;;;;;;;;;;;4.70;99.90;;;;;;1884866;76;20102;-80
2022/11/28 07:37:52;;;;;;;;;;;4.60;99.90;;;;;;1884967;76;20329;-79
2022/11/28 07:40:21;;;;;;;;;;;4.60;99.90;;;;;;1885017;76;20144;-80
2022/11/28 07:42:49;;;;;;;;;;;4.60;99.90;;;;;;1885084;76;20153;-78
2022/11/28 07:45:15;;;;;;;;;;;4.50;99.90;;;;;;1887703;76;20124;-79
2022/11/28 07:47:42;;;;;;;;;;;4.50;99.90;;;;;;1886892;76;20350;-78
2022/11/28 07:50:09;;;;;;;;;;;4.60;99.90;;;;;;1886708;76;20103;-79
2022/11/28 07:52:35;;;;;;;;;;;4.50;99.90;;;;;;1886484;76;20107;-79
2022/11/28 07:55:02;;;;;;;;;;;4.60;99.90;;;;;;1886227;76;20095;-77
2022/11/28 07:57:29;;;;;;;;;;;4.60;99.90;;;;;;1886299;76;20141;-79
2022/11/28 07:59:56;;;;;;;;;;;4.70;99.90;;;;;;1886772;76;20354;-77
2022/11/28 08:02:23;;;;;;;;;;;4.80;99.90;;;;;;1886149;76;20140;-79
2022/11/28 08:04:50;;;;;;;;;;;4.80;99.90;;;;;;1885462;76;20177;-80
2022/11/28 08:07:16;;;;;;;;;;;4.80;99.90;;;;;;1885417;76;20197;-80
2022/11/28 08:09:43;;;;;;;;;;;4.90;99.90;;;;;;1886068;76;20156;-80
2022/11/28 08:12:10;;;;;;;;;;;5.00;99.90;;;;;;1885432;76;20133;-80
2022/11/28 08:14:38;;;;;;;;;;;5.10;99.90;;;;;;1885353;76;20135;-81
2022/11/28 08:17:04;;;;;;;;;;;5.30;99.90;;;;;;1885521;76;20117;-81
2022/11/28 08:19:31;;;;;;;;;;;5.20;99.90;;;;;;1885680;76;20110;-80
2022/11/28 08:21:58;;;;;;;;;;;5.30;99.90;;;;;;1885280;76;20146;-79
2022/11/28 08:24:24;;;;;;;;;;;5.20;99.90;;;;;;1885720;76;20149;-80
2022/11/28 08:26:51;;;;;;;;;;;5.20;99.90;;;;;;1888015;76;20158;-80
2022/11/28 08:29:18;;;;;;;;;;;5.30;99.90;;;;;;1887895;76;20127;-81
2022/11/28 08:31:44;;;;;;;;;;;5.40;99.90;;;;;;1888348;75;20131;-83
2022/11/28 08:34:12;;;;;;;;;;;5.30;99.90;;;;;;1888108;76;20107;-88
2022/11/28 08:36:39;;;;;;;;;;;5.20;99.90;;;;;;1887481;76;20111;-83
2022/11/28 08:39:06;;;;;;;;;;;5.20;99.90;;;;;;1888113;76;20151;-84
2022/11/28 08:41:32;;;;;;;;;;;5.10;99.90;;;;;;1887916;76;20127;-84
2022/11/28 08:43:59;;;;;;;;;;;5.20;99.90;;;;;;1888177;76;20234;-82
2022/11/28 08:46:26;;;;;;;;;;;5.20;99.90;;;;;;1888274;76;20138;-82
2022/11/28 08:48:52;;;;;;;;;;;5.20;99.90;;;;;;1887268;76;20118;-84
2022/11/28 08:51:28;;;;;;;;;;;5.20;99.90;;;;;;1886776;76;20126;-82
2022/11/28 08:53:51;;;;;;;;;;;5.20;99.90;;;;;;1886044;75;20144;-78
2022/11/28 08:56:17;;;;;;;;;;;5.20;99.90;;;;;;1885434;76;20207;-81
2022/11/28 08:58:45;;;;;;;;;;;5.30;99.90;;;;;;1885515;76;20102;-81
2022/11/28 09:01:16;;;;;;;;;;;5.30;99.90;;;;;;1885845;76;20117;-81
2022/11/28 09:03:43;;;;;;;;;;;5.40;99.90;;;;;;1885604;75;20126;-82
2022/11/28 09:06:10;;;;;;;;;;;5.40;99.90;;;;;;1885436;76;20145;-83
2022/11/28 09:08:37;;;;;;;;;;;5.50;99.90;;;;;;1885752;76;20380;-81
2022/11/28 09:11:05;;;;;;;;;;;5.60;99.90;;;;;;1885676;76;20114;-84
2022/11/28 09:13:32;;;;;;;;;;;5.70;99.90;;;;;;1885441;76;20363;-81
2022/11/28 09:16:01;;;;;;;;;;;5.80;99.90;;;;;;1885326;76;20140;-81
2022/11/28 09:18:27;;;;;;;;;;;5.70;99.90;;;;;;1885312;76;20203;-80
2022/11/28 09:20:58;;;;;;;;;;;5.70;99.90;;;;;;1885505;76;20190;-81
2022/11/28 09:23:24;;;;;;;;;;;5.70;99.90;;;;;;1885497;76;20156;-84
2022/11/28 09:25:53;;;;;;;;;;;5.70;99.90;;;;;;1884864;76;20152;-84
2022/11/28 09:28:19;;;;;;;;;;;5.80;99.90;;;;;;1884944;76;20110;-82
2022/11/28 09:30:46;;;;;;;;;;;5.80;99.90;;;;;;1884807;76;20191;-82
2022/11/28 09:33:13;;;;;;;;;;;6.00;99.90;;;;;;1884849;76;20192;-82
2022/11/28 09:35:40;;;;;;;;;;;6.10;99.90;;;;;;1884750;76;20131;-81
2022/11/28 09:38:06;;;;;;;;;;;6.00;99.90;;;;;;1884675;76;20165;-81
2022/11/28 09:40:35;;;;;;;;;;;6.20;99.90;;;;;;1884725;76;20164;-82
2022/11/28 09:43:04;;;;;;;;;;;6.00;99.90;;;;;;1884519;76;20110;-82
2022/11/28 09:45:32;;;;;;;;;;;6.00;99.90;;;;;;1884644;76;20121;-83
2022/11/28 09:48:00;;;;;;;;;;;6.10;99.90;;;;;;1884661;76;20149;-84
2022/11/28 09:53:25;;;;;;;;;;;6.20;99.90;;;;;;1890020;76;20179;-80
2022/11/28 09:55:55;;;;;;;;;;;6.30;99.90;;;;;;1890330;74;20200;-81
2022/11/28 09:58:23;;;;;;;;;;;6.30;99.90;;;;;;1882047;75;20112;-81
2022/11/28 10:00:51;;;;;;;;;;;6.30;99.90;;;;;;1890527;76;20362;-81
2022/11/28 10:03:32;;;;;;;;;;;6.30;99.90;;;;;;1889318;75;20203;-81
2022/11/28 10:06:17;;;;;;;;;;;6.40;99.90;;;;;;1889278;75;20174;-79
2022/11/28 10:08:45;;;;;;;;;;;6.50;99.90;;;;;;1890382;76;20367;-79
2022/11/28 10:11:13;;;;;;;;;;;6.40;99.90;;;;;;1890288;76;20158;-80
2022/11/28 10:13:50;;;;;;;;;;;6.40;99.90;;;;;;1889953;75;20120;-81
2022/11/28 10:16:22;;;;;;;;;;;6.50;99.90;;;;;;1890225;76;20128;-82
2022/11/28 10:18:50;;;;;;;;;;;6.60;99.90;;;;;;1890396;76;20211;-79
2022/11/28 10:21:24;;;;;;;;;;;6.60;99.90;;;;;;1890262;76;20108;-81
2022/11/28 10:23:52;;;;;;;;;;;6.60;99.90;;;;;;1890205;76;20354;-78
2022/11/28 10:26:34;;;;;;;;;;;6.70;99.90;;;;;;1890190;76;20312;-83
2022/11/28 10:29:02;;;;;;;;;;;6.70;99.90;;;;;;1890224;76;20252;-82
2022/11/28 10:31:42;;;;;;;;;;;6.70;99.90;;;;;;1890204;76;20339;-84
2022/11/28 10:34:22;;;;;;;;;;;6.70;99.90;;;;;;1890208;76;20105;-79
2022/11/28 10:37:07;;;;;;;;;;;6.70;99.90;;;;;;1889982;75;20158;-80
2022/11/28 10:39:37;;;;;;;;;;;6.80;99.90;;;;;;1890280;76;20363;-79
2022/11/28 10:42:10;;;;;;;;;;;6.70;99.90;;;;;;1920032;73;20109;-79
2022/11/28 10:44:46;;;;;;;;;;;6.70;99.90;;;;;;1890276;76;20239;-80
2022/11/28 10:47:14;;;;;;;;;;;6.80;99.90;;;;;;1890132;74;20203;-76
2022/11/28 10:49:43;;;;;;;;;;;6.90;99.90;;;;;;1889944;75;20154;-79
2022/11/28 10:52:28;;;;;;;;;;;6.90;99.90;;;;;;1889282;75;20150;-82
2022/11/28 10:55:08;;;;;;;;;;;6.90;99.90;;;;;;1890707;76;20101;-81
2022/11/28 10:57:36;;;;;;;;;;;7.00;99.90;;;;;;1907502;75;20196;-82
2022/11/28 11:00:11;;;;;;;;;;;6.90;99.90;;;;;;1914221;73;20177;-83
2022/11/28 11:02:41;;;;;;;;;;;7.00;99.90;;;;;;1922976;75;20125;-81
2022/11/28 11:05:09;;;;;;;;;;;7.00;99.90;;;;;;1923047;75;20318;-81
2022/11/28 11:07:36;;;;;;;;;;;6.90;99.90;;;;;;1922825;73;20118;-81
2022/11/28 11:10:07;;;;;;;;;;;6.90;99.90;;;;;;1922884;75;20157;-80
2022/11/28 11:12:34;;;;;;;;;;;7.00;99.90;;;;;;1922396;74;20173;-81
2022/11/28 11:15:02;;;;;;;;;;;7.10;99.90;;;;;;1922862;75;20118;-78
2022/11/28 11:17:32;;;;;;;;;;;7.10;99.90;;;;;;1920700;74;20151;-79
2022/11/28 11:19:59;;;;;;;;;;;7.20;99.90;;;;;;1922995;74;20176;-78
2022/11/28 11:22:30;;;;;;;;;;;7.30;99.90;;;;;;1923752;74;20121;-81
2022/11/28 11:25:13;;;;;;;;;;;7.30;99.90;;;;;;1923233;75;20102;-80
2022/11/28 11:27:48;;;;;;;;;;;7.40;99.90;;;;;;1922947;75;20187;-82
2022/11/28 11:30:16;;;;;;;;;;;7.40;99.90;;;;;;1921927;74;20144;-82
2022/11/28 11:32:45;;;;;;;;;;;7.40;99.90;;;;;;1922297;73;20219;-80
2022/11/28 11:35:13;;;;;;;;;;;7.40;99.90;;;;;;1923021;75;20147;-82
2022/11/28 11:37:40;;;;;;;;;;;7.50;99.90;;;;;;1922831;72;20321;-81
2022/11/28 11:40:24;;;;;;;;;;;7.50;99.90;;;;;;1923308;75;20102;-83
2022/11/28 11:42:52;;;;;;;;;;;7.50;99.90;;;;;;1923313;75;20148;-77
2022/11/28 11:45:28;;;;;;;;;;;7.70;99.90;;;;;;1920066;75;20384;-80
2022/11/28 11:47:55;;;;;;;;;;;7.70;99.90;;;;;;1923236;75;20106;-80
2022/11/28 11:50:23;;;;;;;;;;;7.70;99.90;;;;;;1923203;75;20125;-80
2022/11/28 11:53:03;;;;;;;;;;;7.80;99.90;;;;;;1923308;73;20160;-80
2022/11/28 11:55:31;;;;;;;;;;;7.70;99.90;;;;;;1923129;75;20160;-80
2022/11/28 11:57:59;;;;;;;;;;;7.80;99.90;;;;;;1923798;75;20110;-78
2022/11/28 12:00:30;;;;;;;;;;;7.80;99.90;;;;;;1923200;75;20109;-80
2022/11/28 12:02:58;;;;;;;;;;;7.90;99.90;;;;;;1923179;74;20133;-80
2022/11/28 12:05:43;;;;;;;;;;;7.90;99.90;;;;;;1923187;75;20187;-81
2022/11/28 12:08:11;;;;;;;;;;;8.00;99.90;;;;;;1923298;73;20114;-78
2022/11/28 12:10:42;;;;;;;;;;;7.90;99.90;;;;;;1923052;75;20145;-79
2022/11/28 12:13:19;;;;;;;;;;;7.80;99.90;;;;;;1922873;75;20114;-80
2022/11/28 12:16:06;;;;;;;;;;;7.80;99.90;;;;;;1920302;73;20110;-79
2022/11/28 12:18:40;;;;;;;;;;;8.00;99.90;;;;;;1919090;75;20175;-80
2022/11/28 12:21:14;;;;;;;;;;;8.00;99.90;;;;;;1922319;73;20121;-77
2022/11/28 12:23:47;;;;;;;;;;;7.90;99.90;;;;;;1922880;74;20102;-79
2022/11/28 12:26:39;;;;;;;;;;;7.80;99.90;;;;;;1923173;75;20117;-80
2022/11/28 12:29:24;;;;;;;;;;;7.90;99.90;;;;;;1923313;74;20109;-82
2022/11/28 12:32:09;;;;;;;;;;;8.00;99.90;;;;;;1923161;74;20110;-80
2022/11/28 12:34:42;;;;;;;;;;;8.10;99.90;;;;;;1923005;75;20176;-80
2022/11/28 12:37:10;;;;;;;;;;;8.00;99.90;;;;;;1920039;75;20135;-80
2022/11/28 12:39:53;;;;;;;;;;;8.10;99.90;;;;;;1923084;75;20144;-80
2022/11/28 12:42:22;;;;;;;;;;;7.90;99.90;;;;;;1856502;76;20160;-79
2022/11/28 12:45:05;;;;;;;;;;;7.90;99.90;;;;;;1901767;75;20141;-81
2022/11/28 12:47:42;;;;;;;;;;;7.90;99.90;;;;;;1923032;75;20117;-81
2022/11/28 12:50:10;;;;;;;;;;;7.90;99.90;;;;;;1923053;75;20109;-81
2022/11/28 12:52:48;;;;;;;;;;;7.90;99.90;;;;;;1922820;73;20126;-81
2022/11/28 12:55:28;;;;;;;;;;;7.80;99.90;;;;;;1923004;73;20109;-80
2022/11/28 12:57:57;;;;;;;;;;;7.90;99.90;;;;;;1922712;73;20337;-80
2022/11/28 13:00:24;;;;;;;;;;;7.90;99.90;;;;;;1923125;75;20373;-80
2022/11/28 13:03:09;;;;;;;;;;;8.00;99.90;;;;;;1922940;75;20149;-79
2022/11/28 13:05:46;;;;;;;;;;;8.10;99.90;;;;;;1923426;75;20094;-82
2022/11/28 13:08:31;;;;;;;;;;;8.10;99.90;;;;;;1922643;74;20196;-81
2022/11/28 13:11:00;;;;;;;;;;;8.20;99.90;;;;;;1923154;74;20111;-80
2022/11/28 13:13:31;;;;;;;;;;;8.20;99.90;;;;;;1923049;75;20206;-87
2022/11/28 13:16:05;;;;;;;;;;;8.20;99.90;;;;;;1922913;75;20098;-80
2022/11/28 13:18:39;;;;;;;;;;;8.10;99.90;;;;;;1922185;73;20117;-79
2022/11/28 13:21:24;;;;;;;;;;;8.20;99.90;;;;;;1922989;75;20121;-81
2022/11/28 13:23:55;;;;;;;;;;;8.50;99.90;;;;;;1923445;73;20106;-81
2022/11/28 13:26:26;;;;;;;;;;;8.40;99.90;;;;;;1923242;73;20364;-82
2022/11/28 13:28:54;;;;;;;;;;;8.40;99.90;;;;;;1923195;73;20121;-79
2022/11/28 13:31:23;;;;;;;;;;;8.40;99.90;;;;;;1923405;75;20121;-78
2022/11/28 13:33:52;;;;;;;;;;;8.60;99.90;;;;;;1923773;75;20114;-79
2022/11/28 13:36:21;;;;;;;;;;;8.50;99.90;;;;;;1897783;75;20306;-77
2022/11/28 13:38:55;;;;;;;;;;;8.60;99.90;;;;;;1923073;75;20161;-79
2022/11/28 13:41:24;;;;;;;;;;;8.40;99.90;;;;;;1923052;75;20141;-80
2022/11/28 13:43:51;;;;;;;;;;;8.40;99.90;;;;;;1922812;75;20118;-81
2022/11/28 13:46:18;;;;;;;;;;;8.30;99.90;;;;;;1923009;73;20102;-79
2022/11/28 13:48:47;;;;;;;;;;;8.40;99.90;;;;;;1922933;75;20118;-83
2022/11/28 13:51:21;;;;;;;;;;;8.40;99.90;;;;;;1922948;75;20173;-81
2022/11/28 13:53:48;;;;;;;;;;;8.30;99.90;;;;;;1923024;75;20136;-81
2022/11/28 13:56:18;;;;;;;;;;;8.30;99.90;;;;;;1898109;75;20114;-80
2022/11/28 13:58:56;;;;;;;;;;;8.40;99.90;;;;;;1922571;73;20152;-82
2022/11/28 14:01:23;;;;;;;;;;;8.50;99.90;;;;;;1923122;75;20110;-85
2022/11/28 14:03:51;;;;;;;;;;;8.60;99.90;;;;;;1923024;75;20102;-79
2022/11/28 14:06:22;;;;;;;;;;;8.70;99.90;;;;;;1923692;73;20121;-80
2022/11/28 14:08:51;;;;;;;;;;;8.70;99.90;;;;;;1922224;73;20156;-80
2022/11/28 14:11:28;;;;;;;;;;;8.60;99.90;;;;;;1921146;73;20349;-79
2022/11/28 14:14:15;;;;;;;;;;;8.40;99.90;;;;;;1922295;73;20168;-79
2022/11/28 14:17:00;;;;;;;;;;;8.30;99.90;;;;;;1922853;75;20110;-79
2022/11/28 14:19:28;;;;;;;;;;;8.30;99.90;;;;;;1923045;75;20168;-80
2022/11/28 14:22:12;;;;;;;;;;;8.30;99.90;;;;;;1922713;73;20317;-82
2022/11/28 14:24:52;;;;;;;;;;;8.20;99.90;;;;;;1856435;76;20126;-82
2022/11/28 14:27:20;;;;;;;;;;;8.30;99.90;;;;;;1907536;75;20113;-79
2022/11/28 14:29:48;;;;;;;;;;;8.30;99.90;;;;;;1921852;74;20325;-78
2022/11/28 14:32:19;;;;;;;;;;;8.30;99.90;;;;;;1922942;74;20427;-80
2022/11/28 14:34:46;;;;;;;;;;;8.30;99.90;;;;;;1921889;74;20156;-79
2022/11/28 14:37:20;;;;;;;;;;;8.30;99.90;;;;;;1922984;73;20094;-79
2022/11/28 14:39:48;;;;;;;;;;;8.40;99.90;;;;;;1922917;75;20329;-79
2022/11/28 14:42:16;;;;;;;;;;;8.30;99.90;;;;;;1922961;73;20106;-78
2022/11/28 14:44:56;;;;;;;;;;;8.40;99.90;;;;;;1922931;75;20204;-78
2022/11/28 14:47:41;;;;;;;;;;;8.30;99.90;;;;;;1922972;75;20145;-78
2022/11/28 14:50:08;;;;;;;;;;;8.40;99.90;;;;;;1920717;73;20125;-79